createdAt,value
2019-03-03T00:03:25.935Z,99902.77
2019-03-03T00:08:29.684Z,99900.20
2019-03-03T00:13:33.464Z,99892.28
2019-03-03T00:18:37.277Z,99898.14
2019-03-03T00:23:41.058Z,99898.14
2019-03-03T00:28:44.822Z,99898.98
2019-03-03T00:33:48.699Z,99897.78
2019-03-03T00:39:09.694Z,99897.56
2019-03-03T00:44:35.267Z,99895.70
2019-03-03T00:49:56.859Z,99891.56
2019-03-03T00:55:10.454Z,99879.63
2019-03-03T01:00:54.938Z,99873.98
2019-03-03T01:06:04.389Z,99871.70
2019-03-03T01:11:27.147Z,99874.88
2019-03-03T01:16:59.135Z,99877.92
2019-03-03T01:22:11.876Z,99872.83
2019-03-03T01:27:15.670Z,99869.05
2019-03-03T01:32:19.439Z,99861.34
2019-03-03T01:37:23.208Z,99859.52
2019-03-03T01:42:27.033Z,99858.16
2019-03-03T01:47:32.038Z,99862.04
2019-03-03T01:52:35.813Z,99854.76
2019-03-03T01:57:39.576Z,99853.50
2019-03-03T02:02:43.355Z,99853.50
2019-03-03T02:07:47.249Z,99858.06
2019-03-03T02:12:51.038Z,99848.91
2019-03-03T02:17:54.801Z,99848.91
2019-03-03T02:22:58.549Z,99852.09
2019-03-03T02:28:02.380Z,99848.34
2019-03-03T02:33:06.230Z,99855.54
2019-03-03T02:38:09.986Z,99855.54
2019-03-03T02:43:13.787Z,99844.95
2019-03-03T02:48:17.539Z,99838.34
2019-03-03T02:53:21.311Z,99834.09
2019-03-03T02:58:25.077Z,99830.06
2019-03-03T03:03:29.599Z,99826.89
2019-03-03T03:08:37.810Z,99827.99
2019-03-03T03:14:19.024Z,99827.99
2019-03-03T03:19:28.932Z,99813.55
2019-03-03T03:24:58.168Z,99829.14
2019-03-03T03:30:19.907Z,99830.23
2019-03-03T03:35:41.420Z,99825.61
2019-03-03T03:41:01.251Z,99810.65
2019-03-03T03:46:29.861Z,99820.23
2019-03-03T03:51:42.787Z,99820.23
2019-03-03T03:57:09.436Z,99814.02
2019-03-03T04:02:41.311Z,99801.19
2019-03-03T04:08:04.075Z,99799.76
2019-03-03T04:13:25.811Z,99783.55
2019-03-03T04:18:47.424Z,99794.97
2019-03-03T04:24:10.181Z,99787.77
2019-03-03T04:29:23.607Z,99787.77
2019-03-03T04:34:55.315Z,99774.87
2019-03-03T04:40:05.624Z,99771.59
2019-03-03T04:45:14.602Z,99764.14
2019-03-03T04:50:29.789Z,99764.14
2019-03-03T04:55:44.360Z,99740.55
2019-03-03T05:00:58.610Z,99752.97
2019-03-03T05:06:24.255Z,99737.72
2019-03-03T05:12:24.901Z,99738.30
2019-03-03T05:17:51.410Z,99735.37
2019-03-03T05:22:55.240Z,99736.11
2019-03-03T05:28:00.003Z,99736.11
2019-03-03T05:33:03.843Z,99731.95
2019-03-03T05:38:07.638Z,99712.09
2019-03-03T05:43:11.550Z,99708.70
2019-03-03T05:48:15.327Z,99709.42
2019-03-03T05:53:19.102Z,99705.39
2019-03-03T05:58:22.868Z,99704.05
2019-03-03T06:03:26.824Z,99697.84
2019-03-03T06:08:30.575Z,99697.63
2019-03-03T06:13:34.374Z,99688.83
2019-03-03T06:18:38.134Z,99690.06
2019-03-03T06:23:41.983Z,99690.17
2019-03-03T06:28:45.861Z,99669.31
2019-03-03T06:33:49.722Z,99674.22
2019-03-03T06:38:53.467Z,99674.22
2019-03-03T06:43:57.234Z,99668.06
2019-03-03T06:49:01.055Z,99669.10
2019-03-03T06:54:04.974Z,99690.12
2019-03-03T06:59:08.871Z,99690.12
2019-03-03T07:04:12.730Z,99680.97
2019-03-03T07:09:16.594Z,99680.97
2019-03-03T07:14:20.369Z,99665.46
2019-03-03T07:19:24.130Z,99665.46
2019-03-03T07:24:28.031Z,99695.54
2019-03-03T07:29:31.807Z,99689.22
2019-03-03T07:34:35.553Z,99689.22
2019-03-03T07:39:39.383Z,99692.30
2019-03-03T07:44:43.202Z,99689.82
2019-03-03T07:49:47.084Z,99677.61
2019-03-03T07:54:50.839Z,99677.61
2019-03-03T07:59:54.775Z,99688.76
2019-03-03T08:04:58.739Z,99670.17
2019-03-03T08:10:02.737Z,99677.08
2019-03-03T08:15:09.785Z,99683.06
2019-03-03T08:20:13.569Z,99672.74
2019-03-03T08:25:17.486Z,99681.03
2019-03-03T08:30:21.243Z,99671.34
2019-03-03T08:35:25.077Z,99677.53
2019-03-03T08:40:28.861Z,99673.34
2019-03-03T08:45:50.178Z,99673.73
2019-03-03T08:51:02.174Z,99665.14
2019-03-03T08:56:28.781Z,99665.63
2019-03-03T09:01:42.672Z,99665.63
2019-03-03T09:06:57.902Z,99650.74
2019-03-03T09:12:06.698Z,99661.33
2019-03-03T09:17:28.617Z,99660.72
2019-03-03T09:22:49.982Z,99660.72
2019-03-03T09:28:11.415Z,99668.25
2019-03-03T09:33:37.213Z,99668.60
2019-03-03T09:38:51.648Z,99668.60
2019-03-03T09:44:23.655Z,99646.09
2019-03-03T09:49:46.445Z,99655.06
2019-03-03T09:54:57.657Z,99651.34
2019-03-03T10:00:23.536Z,99638.70
2019-03-03T10:05:34.597Z,99638.70
2019-03-03T10:10:47.523Z,99642.40
2019-03-03T10:16:13.354Z,99642.40
2019-03-03T10:21:24.483Z,99644.65
2019-03-03T10:26:46.651Z,99644.18
2019-03-03T10:32:08.409Z,99644.18
2019-03-03T10:37:31.226Z,99648.64
2019-03-03T10:43:12.302Z,99642.34
2019-03-03T10:48:28.167Z,99633.20
2019-03-03T10:53:50.925Z,99638.38
2019-03-03T10:59:26.097Z,99640.87
2019-03-03T11:04:38.700Z,99643.91
2019-03-03T11:09:59.430Z,99639.20
2019-03-03T11:15:22.277Z,99639.20
2019-03-03T11:20:45.359Z,99624.31
2019-03-03T11:26:02.182Z,99624.31
2019-03-03T11:31:34.016Z,99613.02
2019-03-03T11:36:45.173Z,99611.29
2019-03-03T11:41:55.218Z,99611.96
2019-03-03T11:47:21.779Z,99604.08
2019-03-03T11:52:30.738Z,99604.08
2019-03-03T11:57:49.928Z,99593.64
2019-03-03T12:03:02.254Z,99593.64
2019-03-03T12:08:27.771Z,99593.11
2019-03-03T12:13:40.899Z,99594.91
2019-03-03T12:19:12.816Z,99593.64
2019-03-03T12:24:28.328Z,99593.64
2019-03-03T12:30:03.306Z,99581.22
2019-03-03T12:35:33.484Z,99580.52
2019-03-03T12:40:48.160Z,99576.63
2019-03-03T12:46:29.425Z,99577.34
2019-03-03T12:51:54.989Z,99579.66
2019-03-03T12:57:07.631Z,99578.42
2019-03-03T13:02:37.108Z,99573.95
2019-03-03T13:07:47.574Z,99573.95
2019-03-03T13:13:10.405Z,99555.88
2019-03-03T13:18:36.311Z,99558.02
2019-03-03T13:34:00.301Z,99545.14
2019-03-03T13:39:36.292Z,99545.14
2019-03-03T13:44:40.066Z,99543.55
2019-03-03T13:49:43.848Z,99526.11
2019-03-03T14:04:48.944Z,99504.98
2019-03-03T14:09:52.740Z,99519.77
2019-03-03T14:14:56.678Z,99505.98
2019-03-03T14:20:00.894Z,99505.98
2019-03-03T14:25:05.183Z,99491.63
2019-03-03T14:30:11.902Z,99483.81
2019-03-03T14:35:16.388Z,99482.31
2019-03-03T14:40:20.804Z,99478.67
2019-03-03T14:45:24.583Z,99472.57
2019-03-03T14:50:28.497Z,99472.57
2019-03-03T14:55:32.277Z,99468.05
2019-03-03T15:00:36.166Z,99477.53
2019-03-03T15:05:40.036Z,99477.53
2019-03-03T15:10:44.145Z,99462.08
2019-03-03T15:15:47.931Z,99460.51
2019-03-03T15:20:51.728Z,99458.55
2019-03-03T15:25:55.487Z,99455.87
2019-03-03T15:30:59.232Z,99455.87
2019-03-03T15:36:03.270Z,99443.06
2019-03-03T15:41:07.092Z,99448.31
2019-03-03T15:46:10.980Z,99456.83
2019-03-03T15:51:15.184Z,99452.55
2019-03-03T15:56:18.930Z,99452.55
2019-03-03T16:01:22.697Z,99440.47
2019-03-03T16:06:26.458Z,99440.47
2019-03-03T16:11:30.306Z,99432.42
2019-03-03T16:16:34.231Z,99435.46
2019-03-03T16:21:38.394Z,99421.34
2019-03-03T16:26:42.178Z,99415.39
2019-03-03T16:31:45.976Z,99390.49
2019-03-03T16:36:50.100Z,99390.49
2019-03-03T16:41:53.997Z,99394.02
2019-03-03T16:46:57.832Z,99395.22
2019-03-03T16:52:01.797Z,99390.49
2019-03-03T16:57:05.588Z,99375.59
2019-03-03T17:02:09.357Z,99375.59
2019-03-03T17:07:13.170Z,99354.84
2019-03-03T17:12:16.923Z,99333.88
2019-03-03T17:17:21.957Z,99339.18
2019-03-03T17:22:25.751Z,99339.53
2019-03-03T17:27:29.509Z,99339.53
2019-03-03T17:32:33.387Z,99352.51
2019-03-03T17:42:47.508Z,99353.44
2019-03-03T17:47:51.241Z,99359.89
2019-03-03T17:52:55.022Z,99365.33
2019-03-03T17:57:58.776Z,99365.10
2019-03-03T18:03:02.668Z,99365.10
2019-03-03T18:08:06.488Z,99358.31
2019-03-03T18:13:10.292Z,99351.38
2019-03-03T18:18:14.037Z,99344.38
2019-03-03T18:23:17.820Z,99324.84
2019-03-03T18:28:21.670Z,99323.99
2019-03-03T18:33:25.510Z,99326.19
2019-03-03T18:38:29.289Z,99320.49
2019-03-03T18:43:33.167Z,99309.21
2019-03-03T18:48:36.934Z,99314.19
2019-03-03T18:53:40.895Z,99309.71
2019-03-03T18:58:44.657Z,99309.71
2019-03-03T19:03:48.450Z,99290.91
2019-03-03T19:08:52.269Z,99285.52
2019-03-03T19:13:56.007Z,99278.69
2019-03-03T19:18:59.777Z,99272.48
2019-03-03T19:24:03.538Z,99274.61
2019-03-03T19:29:07.326Z,99258.39
2019-03-03T19:34:11.180Z,99258.39
2019-03-03T19:39:14.931Z,99243.40
2019-03-03T19:44:18.776Z,99232.66
2019-03-03T19:49:22.818Z,99228.63
2019-03-03T19:54:26.552Z,99228.63
2019-03-03T19:59:30.306Z,99216.20
2019-03-03T20:04:34.062Z,99233.46
2019-03-03T20:09:37.915Z,99233.46
2019-03-03T20:14:41.757Z,99202.58
2019-03-03T20:19:45.516Z,99187.90
2019-03-03T20:24:49.267Z,99180.31
2019-03-03T20:29:53.036Z,99171.34
2019-03-03T20:34:56.797Z,99181.98
2019-03-03T20:40:00.740Z,99186.36
2019-03-03T20:45:04.914Z,99182.14
2019-03-03T20:50:11.022Z,99178.87
2019-03-03T20:55:15.985Z,99174.98
2019-03-03T21:00:24.401Z,99174.98
2019-03-03T21:05:28.265Z,99174.94
2019-03-03T21:10:32.103Z,99141.48
2019-03-03T21:15:35.850Z,99138.21
2019-03-03T21:20:39.649Z,99126.63
2019-03-03T21:25:43.417Z,99118.80
2019-03-03T21:30:47.234Z,99109.27
2019-03-03T21:35:51.017Z,99104.11
2019-03-03T21:40:54.799Z,99093.73
2019-03-03T21:45:58.558Z,99083.91
2019-03-03T21:51:02.312Z,99083.91
2019-03-03T21:56:06.108Z,99072.13
2019-03-03T22:01:09.860Z,99072.13
2019-03-03T22:06:13.610Z,99045.72
2019-03-03T22:11:17.449Z,99045.72
2019-03-03T22:16:21.202Z,99042.91
2019-03-03T22:21:24.976Z,99042.91
2019-03-03T22:26:28.860Z,99041.75
2019-03-03T22:31:32.755Z,99040.67
2019-03-03T22:36:36.657Z,99038.67
2019-03-03T22:41:40.511Z,99037.17
2019-03-03T22:46:44.269Z,99034.80
2019-03-03T22:51:48.025Z,99034.80
2019-03-03T22:56:51.793Z,99027.91
2019-03-03T23:01:55.986Z,99023.06
2019-03-03T23:07:22.581Z,99027.48
2019-03-03T23:12:38.743Z,99023.56
2019-03-03T23:18:27.319Z,99023.56
2019-03-03T23:24:01.579Z,99014.72
2019-03-03T23:29:05.374Z,99007.61
2019-03-03T23:34:09.134Z,99007.61
2019-03-03T23:39:12.991Z,98979.43
2019-03-03T23:44:16.854Z,98979.43
2019-03-03T23:49:20.609Z,98962.14
2019-03-03T23:54:24.394Z,98962.14
2019-03-03T23:59:28.148Z,98963.48
